createdAt,value
2023-12-11T00:01:51.089Z,0.60
2023-12-11T00:04:18.514Z,1.20
2023-12-11T00:06:45.580Z,0.90
2023-12-11T00:09:14.041Z,0.90
2023-12-11T00:11:41.242Z,1.30
2023-12-11T00:14:08.181Z,1.00
2023-12-11T00:16:35.185Z,0.80
2023-12-11T00:19:02.812Z,0.90
2023-12-11T00:21:30.156Z,1.00
2023-12-11T00:23:57.391Z,1.10
2023-12-11T00:26:24.335Z,1.00
2023-12-11T00:28:51.275Z,0.70
2023-12-11T00:31:18.634Z,1.10
2023-12-11T00:33:46.016Z,1.00
2023-12-11T00:36:13.139Z,1.10
2023-12-11T00:38:40.073Z,1.30
2023-12-11T00:41:08.272Z,1.10
2023-12-11T00:43:44.794Z,1.00
2023-12-11T00:46:14.935Z,1.20
2023-12-11T00:48:42.125Z,1.70
2023-12-11T00:51:19.425Z,1.10
2023-12-11T00:53:46.842Z,1.00
2023-12-11T00:56:14.403Z,1.00
2023-12-11T00:58:41.258Z,1.10
2023-12-11T01:01:08.402Z,1.10
2023-12-11T01:03:36.701Z,1.30
2023-12-11T01:06:04.011Z,0.70
2023-12-11T01:08:31.061Z,1.10
2023-12-11T01:10:58.221Z,1.10
2023-12-11T01:13:25.772Z,1.50
2023-12-11T01:15:52.899Z,1.60
2023-12-11T01:18:20.152Z,1.20
2023-12-11T01:20:47.117Z,1.00
2023-12-11T01:23:14.067Z,0.90
2023-12-11T01:25:41.417Z,1.00
2023-12-11T01:28:08.895Z,1.30
2023-12-11T01:30:36.363Z,0.90
2023-12-11T01:33:04.328Z,0.80
2023-12-11T01:35:34.825Z,1.40
2023-12-11T01:38:01.771Z,1.10
2023-12-11T01:40:29.438Z,0.90
2023-12-11T01:43:06.942Z,0.90
2023-12-11T01:45:38.365Z,0.80
2023-12-11T01:48:06.492Z,0.90
2023-12-11T01:50:33.616Z,1.00
2023-12-11T01:53:00.439Z,2.00
2023-12-11T01:55:27.307Z,1.10
2023-12-11T01:57:54.260Z,1.20
2023-12-11T02:00:21.263Z,1.30
2023-12-11T02:02:48.119Z,1.00
2023-12-11T02:05:15.295Z,1.10
2023-12-11T02:07:42.440Z,1.20
2023-12-11T02:10:10.046Z,1.00
2023-12-11T02:12:37.289Z,1.50
2023-12-11T02:15:04.896Z,1.20
2023-12-11T02:17:32.199Z,0.90
2023-12-11T02:19:59.676Z,0.90
2023-12-11T02:22:26.742Z,1.20
2023-12-11T02:24:57.015Z,1.80
2023-12-11T02:27:24.037Z,1.50
2023-12-11T02:29:54.244Z,1.30
2023-12-11T02:32:21.316Z,1.00
2023-12-11T02:34:49.339Z,0.80
2023-12-11T02:37:16.704Z,1.10
2023-12-11T02:39:45.248Z,1.20
2023-12-11T02:42:12.125Z,1.20
2023-12-11T02:44:39.323Z,2.40
2023-12-11T02:47:06.223Z,1.60
2023-12-11T02:49:33.307Z,1.40
2023-12-11T02:52:00.417Z,1.70
2023-12-11T02:54:27.465Z,2.00
2023-12-11T02:56:54.414Z,1.00
2023-12-11T02:59:21.457Z,1.60
2023-12-11T03:01:48.516Z,3.00
2023-12-11T03:04:15.695Z,1.60
2023-12-11T03:06:42.835Z,2.00
2023-12-11T03:09:09.880Z,2.50
2023-12-11T03:11:36.800Z,1.60
2023-12-11T03:14:03.958Z,3.10
2023-12-11T03:16:31.302Z,3.40
2023-12-11T03:18:58.302Z,2.20
2023-12-11T03:21:25.413Z,2.20
2023-12-11T03:23:52.440Z,1.80
2023-12-11T03:26:19.382Z,2.80
2023-12-11T03:28:46.438Z,1.80
2023-12-11T03:31:13.464Z,1.40
2023-12-11T03:33:40.620Z,1.70
2023-12-11T03:36:08.389Z,2.20
2023-12-11T03:38:35.355Z,1.70
2023-12-11T03:41:02.371Z,1.90
2023-12-11T03:43:29.525Z,1.70
2023-12-11T03:45:56.757Z,2.30
2023-12-11T03:48:23.940Z,1.00
2023-12-11T03:50:51.098Z,2.30
2023-12-11T03:53:17.911Z,2.10
2023-12-11T03:55:44.756Z,1.50
2023-12-11T03:58:11.803Z,1.80
2023-12-11T04:00:39.084Z,2.70
2023-12-11T04:03:06.330Z,1.50
2023-12-11T04:05:33.476Z,2.20
2023-12-11T04:08:00.748Z,1.70
2023-12-11T04:10:27.658Z,1.90
2023-12-11T04:12:54.728Z,1.60
2023-12-11T04:15:21.654Z,1.80
2023-12-11T04:17:48.625Z,1.80
2023-12-11T04:20:15.762Z,0.90
2023-12-11T04:22:42.681Z,1.80
2023-12-11T04:25:09.906Z,1.00
2023-12-11T04:27:37.017Z,1.60
2023-12-11T04:30:05.464Z,3.20
2023-12-11T04:32:33.003Z,2.10
2023-12-11T04:35:00.196Z,1.90
2023-12-11T04:37:27.740Z,1.50
2023-12-11T04:39:54.793Z,1.90
2023-12-11T04:42:22.024Z,3.00
2023-12-11T04:44:49.196Z,1.90
2023-12-11T04:47:16.218Z,2.40
2023-12-11T04:49:43.838Z,1.80
2023-12-11T04:52:11.296Z,1.90
2023-12-11T04:54:38.388Z,1.90
2023-12-11T04:57:05.452Z,1.80
2023-12-11T04:59:32.382Z,2.70
2023-12-11T05:01:59.505Z,3.10
2023-12-11T05:04:26.777Z,2.70
2023-12-11T05:06:53.761Z,2.50
2023-12-11T05:09:21.806Z,1.80
2023-12-11T05:11:48.843Z,2.70
2023-12-11T05:14:15.819Z,2.30
2023-12-11T05:16:42.840Z,2.60
2023-12-11T05:19:10.064Z,1.40
2023-12-11T05:21:37.268Z,2.50
2023-12-11T05:24:04.893Z,2.50
2023-12-11T05:26:31.972Z,1.80
2023-12-11T05:29:01.043Z,0.80
2023-12-11T05:31:27.982Z,2.30
2023-12-11T05:33:55.135Z,2.60
2023-12-11T05:36:22.292Z,2.60
2023-12-11T05:38:49.662Z,1.90
2023-12-11T05:41:17.807Z,1.40
2023-12-11T05:43:44.754Z,2.20
2023-12-11T05:46:11.656Z,1.50
2023-12-11T05:48:38.831Z,2.80
2023-12-11T05:51:05.998Z,2.00
2023-12-11T05:53:33.147Z,1.40
2023-12-11T05:56:00.200Z,2.00
2023-12-11T05:58:27.398Z,1.90
2023-12-11T06:00:54.705Z,2.30
2023-12-11T06:03:21.882Z,2.30
2023-12-11T06:05:48.972Z,2.80
2023-12-11T06:08:16.047Z,2.40
2023-12-11T06:10:43.096Z,2.70
2023-12-11T06:13:10.115Z,2.90
2023-12-11T06:15:37.115Z,2.10
2023-12-11T06:18:04.885Z,2.60
2023-12-11T06:20:31.829Z,2.70
2023-12-11T06:22:58.862Z,2.90
2023-12-11T06:25:25.942Z,1.50
2023-12-11T06:27:53.521Z,2.90
2023-12-11T06:30:20.614Z,2.60
2023-12-11T06:32:47.600Z,3.20
2023-12-11T06:35:14.541Z,2.00
2023-12-11T06:37:41.628Z,2.20
2023-12-11T06:40:09.970Z,2.10
2023-12-11T06:42:39.909Z,1.60
2023-12-11T06:45:09.476Z,1.90
2023-12-11T06:47:37.199Z,2.30
2023-12-11T06:50:05.224Z,2.50
2023-12-11T06:52:32.438Z,2.10
2023-12-11T06:54:59.613Z,2.40
2023-12-11T06:57:26.898Z,3.60
2023-12-11T06:59:53.874Z,2.40
2023-12-11T07:02:21.231Z,2.10
2023-12-11T07:04:48.527Z,2.00
2023-12-11T07:07:15.700Z,2.60
2023-12-11T07:09:46.916Z,3.10
2023-12-11T07:12:14.330Z,2.00
2023-12-11T07:14:41.674Z,3.60
2023-12-11T07:17:08.749Z,2.70
2023-12-11T07:19:35.857Z,2.70
2023-12-11T07:22:03.671Z,2.50
2023-12-11T07:24:30.784Z,3.70
2023-12-11T07:26:58.455Z,3.50
2023-12-11T07:29:25.514Z,2.90
2023-12-11T07:31:52.851Z,2.80
2023-12-11T07:34:22.772Z,3.40
2023-12-11T07:36:52.078Z,2.30
2023-12-11T07:39:19.325Z,2.60
2023-12-11T07:41:46.286Z,3.00
2023-12-11T07:44:13.607Z,3.80
2023-12-11T07:46:43.159Z,3.00
2023-12-11T07:49:14.705Z,3.90
2023-12-11T07:51:42.301Z,3.20
2023-12-11T07:54:10.623Z,3.10
2023-12-11T07:56:40.435Z,2.40
2023-12-11T07:59:07.465Z,3.20
2023-12-11T08:01:34.872Z,3.50
2023-12-11T08:04:02.448Z,2.40
2023-12-11T08:06:30.559Z,3.30
2023-12-11T08:08:58.034Z,3.70
2023-12-11T08:11:30.901Z,4.20
2023-12-11T08:13:58.463Z,3.40
2023-12-11T08:16:25.565Z,3.00
2023-12-11T08:18:52.832Z,3.40
2023-12-11T08:21:20.760Z,4.20
2023-12-11T08:23:48.692Z,3.40
2023-12-11T08:26:17.896Z,4.40
2023-12-11T08:28:45.468Z,4.10
2023-12-11T08:31:12.704Z,3.00
2023-12-11T08:33:40.170Z,3.70
2023-12-11T08:36:08.167Z,4.20
2023-12-11T08:38:35.370Z,5.10
2023-12-11T08:41:02.540Z,4.00
2023-12-11T08:43:29.835Z,4.50
2023-12-11T08:45:57.252Z,3.10
2023-12-11T08:48:27.695Z,3.90
2023-12-11T08:50:56.152Z,4.00
2023-12-11T08:53:24.656Z,3.70
2023-12-11T08:55:52.384Z,4.30
2023-12-11T08:58:19.495Z,2.90
2023-12-11T09:00:46.697Z,4.80
2023-12-11T09:03:14.044Z,3.60
2023-12-11T09:05:40.967Z,3.00
2023-12-11T09:08:08.644Z,5.20
2023-12-11T09:10:36.816Z,3.00
2023-12-11T09:13:03.938Z,3.30
2023-12-11T09:15:32.075Z,3.20
2023-12-11T09:17:59.662Z,2.60
2023-12-11T09:20:26.741Z,3.70
2023-12-11T09:22:53.899Z,4.50
2023-12-11T09:25:21.070Z,3.80
2023-12-11T09:27:49.013Z,3.60
2023-12-11T09:30:16.391Z,3.80
2023-12-11T09:32:44.011Z,3.10
2023-12-11T09:35:11.662Z,4.30
2023-12-11T09:37:38.959Z,4.10
2023-12-11T09:40:07.453Z,3.10
2023-12-11T09:42:35.518Z,3.10
2023-12-11T09:45:04.178Z,3.50
2023-12-11T09:47:35.718Z,4.30
2023-12-11T09:50:03.624Z,5.40
2023-12-11T09:52:31.667Z,2.10
2023-12-11T09:54:59.413Z,3.20
2023-12-11T09:57:26.628Z,3.30
2023-12-11T09:59:53.943Z,4.40
2023-12-11T10:02:21.080Z,5.40
2023-12-11T10:05:25.396Z,2.90
2023-12-11T10:10:23.718Z,4.80
2023-12-11T10:12:50.864Z,3.70
2023-12-11T10:15:26.320Z,4.30
2023-12-11T10:18:04.249Z,3.30
2023-12-11T10:20:33.439Z,3.50
2023-12-11T10:23:14.501Z,4.20
2023-12-11T10:25:43.712Z,4.40
2023-12-11T10:28:12.434Z,3.50
2023-12-11T10:30:59.916Z,5.30
2023-12-11T10:33:28.963Z,3.90
2023-12-11T10:36:16.705Z,3.70
2023-12-11T10:38:44.056Z,4.10
2023-12-11T10:41:32.200Z,4.20
2023-12-11T10:44:08.972Z,4.20
2023-12-11T10:46:45.187Z,2.70
2023-12-11T10:49:12.997Z,4.50
2023-12-11T10:51:41.046Z,3.40
2023-12-11T10:54:10.393Z,3.30
2023-12-11T10:56:38.252Z,2.30
2023-12-11T10:59:06.149Z,4.10
2023-12-11T11:01:34.042Z,4.30
2023-12-11T11:04:02.804Z,3.80
2023-12-11T11:06:30.807Z,4.80
2023-12-11T11:09:05.420Z,5.80
2023-12-11T11:11:38.621Z,3.30
2023-12-11T11:14:25.704Z,5.40
2023-12-11T11:16:54.555Z,4.70
2023-12-11T11:19:22.505Z,4.70
2023-12-11T11:29:41.476Z,3.50
2023-12-11T11:32:10.452Z,4.70
2023-12-11T11:42:18.389Z,4.40
2023-12-11T11:44:46.455Z,4.70
2023-12-11T11:47:20.562Z,5.10
2023-12-11T11:49:49.432Z,4.90
2023-12-11T11:52:22.417Z,3.90
2023-12-11T11:54:50.325Z,4.60
2023-12-11T11:57:18.089Z,4.00
2023-12-11T11:59:46.062Z,4.90
2023-12-11T12:02:21.332Z,5.00
2023-12-11T12:04:49.156Z,3.70
2023-12-11T12:07:17.190Z,5.20
2023-12-11T12:17:28.482Z,5.30
2023-12-11T12:19:57.412Z,3.80
2023-12-11T12:22:27.353Z,5.10
2023-12-11T12:24:56.057Z,5.40
2023-12-11T12:27:24.519Z,5.50
2023-12-11T12:29:55.996Z,3.80
2023-12-11T12:32:23.738Z,4.30
2023-12-11T12:34:53.227Z,5.90
2023-12-11T12:37:21.151Z,5.40
2023-12-11T12:39:49.003Z,5.80
2023-12-11T12:42:17.061Z,4.00
2023-12-11T12:44:44.824Z,5.10
2023-12-11T12:55:10.655Z,6.00
2023-12-11T12:57:37.946Z,5.20
2023-12-11T13:00:06.462Z,5.80
2023-12-11T13:02:34.084Z,6.00
2023-12-11T13:05:01.306Z,5.50
2023-12-11T13:07:29.476Z,5.80
2023-12-11T13:09:57.204Z,6.10
2023-12-11T13:12:25.099Z,5.70
2023-12-11T13:14:52.499Z,5.90
2023-12-11T13:17:20.343Z,6.30
2023-12-11T13:19:47.575Z,6.40
2023-12-11T13:22:14.967Z,6.50
2023-12-11T13:24:42.236Z,6.50
2023-12-11T13:27:09.387Z,5.90
2023-12-11T13:29:37.729Z,7.00
2023-12-11T13:32:05.535Z,4.70
2023-12-11T13:34:32.979Z,4.50
2023-12-11T13:37:00.112Z,6.90
2023-12-11T13:39:27.262Z,6.60
2023-12-11T13:41:54.302Z,6.30
2023-12-11T13:44:21.956Z,4.80
2023-12-11T13:46:48.903Z,6.70
2023-12-11T13:49:16.085Z,6.30
2023-12-11T13:51:43.391Z,5.80
2023-12-11T13:54:10.785Z,6.30
2023-12-11T13:56:38.039Z,4.80
2023-12-11T13:59:05.702Z,5.10
2023-12-11T14:01:33.329Z,9.10
2023-12-11T14:04:00.917Z,6.30
2023-12-11T14:06:28.476Z,4.90
2023-12-11T14:08:55.543Z,7.30
2023-12-11T14:11:22.761Z,6.10
2023-12-11T14:13:49.802Z,5.50
2023-12-11T14:16:16.904Z,5.80
2023-12-11T14:18:44.475Z,7.40
2023-12-11T14:21:11.692Z,8.00
2023-12-11T14:23:39.439Z,6.60
2023-12-11T14:26:06.537Z,6.50
2023-12-11T14:28:33.625Z,4.20
2023-12-11T14:31:01.830Z,5.60
2023-12-11T14:33:29.493Z,6.10
2023-12-11T14:35:56.811Z,3.60
2023-12-11T14:38:23.858Z,4.80
2023-12-11T14:40:51.034Z,5.20
2023-12-11T14:43:18.209Z,4.40
2023-12-11T14:45:46.021Z,6.20
2023-12-11T14:48:13.556Z,4.40
2023-12-11T14:50:42.119Z,5.60
2023-12-11T14:53:10.764Z,5.80
2023-12-11T14:55:43.880Z,5.90
2023-12-11T14:58:11.815Z,5.20
2023-12-11T15:00:39.148Z,5.30
2023-12-11T15:03:06.342Z,4.40
2023-12-11T15:05:33.550Z,6.50
2023-12-11T15:08:00.707Z,6.80
2023-12-11T15:10:28.077Z,6.30
2023-12-11T15:12:56.267Z,5.30
2023-12-11T15:15:23.593Z,6.20
2023-12-11T15:17:50.727Z,5.40
2023-12-11T15:20:20.928Z,4.80
2023-12-11T15:22:48.220Z,6.70
2023-12-11T15:25:15.401Z,5.70
2023-12-11T15:27:42.408Z,6.40
2023-12-11T15:30:10.426Z,4.80
2023-12-11T15:32:37.774Z,5.00
2023-12-11T15:35:05.722Z,6.90
2023-12-11T15:37:33.573Z,6.10
2023-12-11T15:40:01.220Z,5.30
2023-12-11T15:42:28.622Z,3.70
2023-12-11T15:44:55.629Z,6.00
2023-12-11T15:47:23.712Z,5.60
2023-12-11T15:49:52.246Z,5.60
2023-12-11T15:52:19.515Z,5.10
2023-12-11T15:54:46.840Z,6.10
2023-12-11T15:57:13.936Z,4.70
2023-12-11T15:59:42.636Z,5.20
2023-12-11T16:02:10.521Z,7.20
2023-12-11T16:04:37.689Z,4.40
2023-12-11T16:07:04.939Z,5.30
2023-12-11T16:09:31.942Z,5.10
2023-12-11T16:11:58.986Z,5.40
2023-12-11T16:14:26.053Z,6.10
2023-12-11T16:16:53.211Z,5.10
2023-12-11T16:19:20.444Z,5.30
2023-12-11T16:21:48.238Z,4.60
2023-12-11T16:24:15.348Z,6.80
2023-12-11T16:26:42.411Z,6.60
2023-12-11T16:29:09.442Z,4.70
2023-12-11T16:31:36.601Z,6.50
2023-12-11T16:34:04.139Z,7.00
2023-12-11T16:36:31.612Z,6.20
2023-12-11T16:38:59.033Z,5.90
2023-12-11T16:41:26.726Z,5.20
2023-12-11T16:43:53.814Z,5.90
2023-12-11T16:46:24.007Z,6.00
2023-12-11T16:48:51.511Z,5.60
2023-12-11T16:51:18.819Z,5.30
2023-12-11T16:53:47.209Z,5.10
2023-12-11T16:56:15.566Z,5.20
2023-12-11T16:58:42.799Z,5.50
2023-12-11T17:01:13.231Z,5.80
2023-12-11T17:03:41.096Z,6.30
2023-12-11T17:06:14.818Z,5.60
2023-12-11T17:08:42.054Z,5.00
2023-12-11T17:11:09.147Z,6.50
2023-12-11T17:13:39.596Z,7.00
2023-12-11T17:16:07.528Z,5.70
2023-12-11T17:18:35.935Z,7.10
2023-12-11T17:21:05.840Z,5.80
2023-12-11T17:23:33.778Z,5.50
2023-12-11T17:26:00.926Z,4.60
2023-12-11T17:28:27.984Z,6.60
2023-12-11T17:30:55.083Z,5.20
2023-12-11T17:33:24.426Z,7.50
2023-12-11T17:35:51.494Z,6.40
2023-12-11T17:38:18.620Z,4.60
2023-12-11T17:40:46.787Z,6.00
2023-12-11T17:43:13.854Z,7.90
2023-12-11T17:45:41.801Z,6.10
2023-12-11T17:48:09.017Z,5.80
2023-12-11T17:50:36.413Z,5.80
2023-12-11T17:53:03.464Z,6.60
2023-12-11T17:55:30.688Z,5.50
2023-12-11T17:57:57.887Z,6.30
2023-12-11T18:00:25.152Z,5.90
2023-12-11T18:02:52.261Z,6.30
2023-12-11T18:05:19.924Z,6.40
2023-12-11T18:07:47.509Z,6.40
2023-12-11T18:10:18.588Z,6.90
2023-12-11T18:12:46.119Z,6.70
2023-12-11T18:15:13.240Z,6.20
2023-12-11T18:17:40.416Z,5.20
2023-12-11T18:20:09.311Z,5.90
2023-12-11T18:22:36.667Z,6.10
2023-12-11T18:25:04.738Z,5.70
2023-12-11T18:27:35.669Z,5.90
2023-12-11T18:30:04.036Z,5.70
2023-12-11T18:32:31.543Z,5.10
2023-12-11T18:35:01.282Z,4.50
2023-12-11T18:37:29.220Z,7.60
2023-12-11T18:39:56.920Z,5.80
2023-12-11T18:42:24.267Z,6.00
2023-12-11T18:44:54.167Z,5.60
2023-12-11T18:47:21.348Z,6.00
2023-12-11T18:49:49.576Z,6.30
2023-12-11T18:52:17.938Z,7.30
2023-12-11T18:54:45.511Z,7.40
2023-12-11T18:57:17.359Z,7.10
2023-12-11T18:59:45.056Z,7.10
2023-12-11T19:02:12.940Z,5.70
2023-12-11T19:04:40.801Z,5.90
2023-12-11T19:07:08.833Z,6.80
2023-12-11T19:09:36.109Z,6.80
2023-12-11T19:12:04.210Z,6.70
2023-12-11T19:14:31.563Z,5.50
2023-12-11T19:16:58.901Z,7.60
2023-12-11T19:19:26.155Z,6.30
2023-12-11T19:21:53.734Z,7.00
2023-12-11T19:24:20.974Z,6.70
2023-12-11T19:26:48.115Z,4.80
2023-12-11T19:29:16.480Z,6.70
2023-12-11T19:31:44.053Z,6.70
2023-12-11T19:34:11.621Z,5.50
2023-12-11T19:36:45.201Z,6.10
2023-12-11T19:39:13.009Z,4.90
2023-12-11T19:41:43.807Z,6.50
2023-12-11T19:44:11.063Z,4.20
2023-12-11T19:46:44.985Z,4.90
2023-12-11T19:49:12.252Z,4.80
2023-12-11T19:51:43.379Z,5.90
2023-12-11T19:54:10.331Z,4.90
2023-12-11T19:56:37.459Z,5.70
2023-12-11T19:59:04.598Z,4.90
2023-12-11T20:01:34.854Z,4.80
2023-12-11T20:04:02.361Z,6.10
2023-12-11T20:06:29.840Z,4.90
2023-12-11T20:08:56.905Z,5.30
2023-12-11T20:11:26.697Z,5.40
2023-12-11T20:13:53.669Z,5.60
2023-12-11T20:16:20.721Z,3.40
2023-12-11T20:18:47.901Z,5.60
2023-12-11T20:21:15.905Z,5.80
2023-12-11T20:23:42.955Z,5.30
2023-12-11T20:26:14.611Z,4.50
2023-12-11T20:28:42.175Z,5.50
2023-12-11T20:31:17.334Z,5.70
2023-12-11T20:33:44.624Z,6.80
2023-12-11T20:36:18.124Z,6.90
2023-12-11T20:41:25.871Z,5.10
2023-12-11T20:43:58.556Z,6.70
2023-12-11T20:46:27.106Z,6.40
2023-12-11T20:48:54.797Z,4.80
2023-12-11T20:51:23.730Z,4.20
2023-12-11T20:53:51.453Z,5.90
2023-12-11T20:56:22.387Z,5.70
2023-12-11T20:58:50.190Z,5.30
2023-12-11T21:01:34.924Z,4.80
2023-12-11T21:04:04.236Z,4.90
2023-12-11T21:06:32.383Z,7.00
2023-12-11T21:09:00.419Z,5.00
2023-12-11T21:11:27.709Z,4.90
2023-12-11T21:13:54.900Z,4.90
2023-12-11T21:16:22.106Z,5.60
2023-12-11T21:18:50.155Z,5.40
2023-12-11T21:21:18.268Z,5.80
2023-12-11T21:23:46.450Z,3.50
2023-12-11T21:26:17.849Z,4.90
2023-12-11T21:28:45.573Z,5.30
2023-12-11T21:31:23.188Z,4.70
2023-12-11T21:33:51.802Z,4.50
2023-12-11T21:36:23.693Z,5.90
2023-12-11T21:38:50.876Z,5.60
2023-12-11T21:41:17.928Z,6.20
2023-12-11T21:43:46.375Z,2.60
2023-12-11T21:46:13.992Z,3.80
2023-12-11T21:48:43.309Z,4.40
2023-12-11T21:51:11.240Z,5.90
2023-12-11T21:54:37.621Z,6.70
2023-12-11T21:57:05.437Z,4.50
2023-12-11T21:59:39.766Z,5.00
2023-12-11T22:02:12.970Z,3.90
2023-12-11T22:04:41.075Z,5.60
2023-12-11T22:07:08.913Z,6.00
2023-12-11T22:09:36.706Z,4.40
2023-12-11T22:12:05.289Z,4.30
2023-12-11T22:14:33.155Z,4.40
2023-12-11T22:17:00.920Z,3.90
2023-12-11T22:19:28.843Z,4.40
2023-12-11T22:21:56.784Z,5.70
2023-12-11T22:24:24.865Z,6.50
2023-12-11T22:26:53.228Z,6.10
2023-12-11T22:29:20.964Z,5.00
2023-12-11T22:31:49.676Z,4.40
2023-12-11T22:34:17.735Z,5.00
2023-12-11T22:36:45.591Z,5.00
2023-12-11T22:39:13.360Z,5.00
2023-12-11T22:41:41.114Z,5.50
2023-12-11T22:44:08.908Z,5.20
2023-12-11T22:46:37.007Z,4.20
2023-12-11T22:49:04.979Z,4.90
2023-12-11T22:51:32.804Z,4.10
2023-12-11T22:54:00.440Z,5.50
2023-12-11T22:56:28.094Z,6.10
2023-12-11T22:58:55.793Z,5.10
2023-12-11T23:01:23.628Z,3.60
2023-12-11T23:03:51.582Z,4.50
2023-12-11T23:06:19.394Z,4.00
2023-12-11T23:08:47.343Z,6.20
2023-12-11T23:11:15.120Z,4.60
2023-12-11T23:13:42.866Z,4.90
2023-12-11T23:16:10.681Z,5.80
2023-12-11T23:18:38.596Z,6.40
2023-12-11T23:21:06.878Z,6.70
2023-12-11T23:23:34.657Z,5.50
2023-12-11T23:26:05.198Z,4.50
2023-12-11T23:28:33.612Z,5.10
2023-12-11T23:31:01.435Z,4.50
2023-12-11T23:33:29.255Z,5.90
2023-12-11T23:35:57.454Z,6.00
2023-12-11T23:38:25.220Z,6.40
2023-12-11T23:40:53.187Z,3.70
2023-12-11T23:43:20.871Z,3.20
2023-12-11T23:45:48.824Z,5.10
2023-12-11T23:48:16.787Z,6.10
2023-12-11T23:58:28.478Z,5.30
